Latest Weather Observations for Padthaway

IDS60801

Issued at 9:05 pm CST Wednesday 23 July 2014 (issued every 30 minutes, with the page automatically refreshed every 10 minutes)

About weather observations | Map of weather stations | Latest weather observations for SA | Other Formats
Station Details ID: 026100 Name: PADTHAWAY SOUTH Lat: -36.65 Lon: 140.52 Height: 37.0 m
Data from the previous 72 hours. | See also: Recent months at Padthaway
Date/Time
CST
Temp
°C
App
Temp
°C
Dew
Point
Rel
Hum
%
Delta-T
°C
Wind Press
QNH
hPa
Press
MSL
hPa
Rain
since 9 am
mm
Dir
 
Spd
km/h
Gust
km/h
Spd
kts
Gust
kts
23/09:00pm 10.8 4.3 4.9 67 2.7 ENE 28 37 15 20 - - 0.0
23/08:30pm 10.8 5.0 4.3 64 2.9 ENE 24 35 13 19 - - 0.0
23/08:00pm 10.6 4.0 4.1 64 2.9 ENE 28 35 15 19 - - 0.0
23/07:30pm 10.2 4.1 4.6 68 2.5 ENE 26 32 14 17 - - 0.0
23/07:00pm 10.5 5.5 4.6 67 2.7 ENE 20 33 11 18 - - 0.0
23/06:30pm 10.5 5.6 4.9 68 2.5 ENE 20 30 11 16 - - 0.0
23/06:00pm 10.7 6.3 4.8 67 2.7 ENE 17 24 9 13 - - 0.0
23/05:30pm 10.8 6.5 5.1 68 2.6 E 17 22 9 12 - - 0.0
23/05:00pm 11.1 6.8 5.2 67 2.7 E 17 20 9 11 - - 0.0
23/04:30pm 11.6 7.7 5.3 65 2.9 E 15 20 8 11 - - 0.0
23/04:00pm 11.9 7.9 4.9 62 3.2 ENE 15 20 8 11 - - 0.0
23/03:30pm 12.0 7.1 4.2 59 3.5 ENE 19 24 10 13 - - 0.0
23/03:00pm 12.3 7.9 4.5 59 3.6 ENE 17 26 9 14 - - 0.0
23/02:30pm 13.0 8.2 4.7 57 3.8 NE 19 28 10 15 - - 0.0
23/02:00pm 14.5 9.9 5.6 55 4.2 NE 19 28 10 15 - - 0.0
23/01:30pm 13.2 8.1 4.1 54 4.1 NE 20 30 11 16 - - 0.0
23/01:00pm 12.9 8.1 4.8 58 3.7 NE 19 24 10 13 - - 0.0
23/12:30pm 11.3 6.5 4.7 64 3.0 NE 19 30 10 16 - - 0.0
23/12:00pm 10.3 5.4 5.3 71 2.3 NE 20 28 11 15 - - 0.0
23/11:30am 9.0 4.1 5.0 76 1.8 NE 20 30 11 16 - - 0.0
23/11:00am 8.6 3.3 5.0 78 1.6 NNE 22 33 12 18 - - 0.0
23/10:30am 7.8 3.0 4.4 79 1.5 NNE 19 30 10 16 - - 0.0
23/10:00am 7.5 2.5 4.5 81 1.3 NE 20 30 11 16 - - 0.0
23/09:30am 6.7 0.8 3.9 82 1.2 NE 24 35 13 19 - - 0.0
23/09:00am 6.6 3.5 3.8 82 1.2 NE 9 20 5 11 - - 0.0
23/08:30am 6.7 3.2 3.7 81 1.3 NE 11 19 6 10 - - 0.0
23/08:00am 5.8 3.0 3.1 83 1.1 ENE 7 11 4 6 - - 0.0
23/07:30am 5.6 2.4 3.1 84 1.0 ENE 9 19 5 10 - - 0.0
23/07:00am 5.5 1.8 2.5 81 1.2 E 11 17 6 9 - - 0.0
23/06:30am 5.9 2.7 3.1 82 1.2 NE 9 13 5 7 - - 0.0
23/06:00am 6.0 1.4 3.7 85 1.0 NNE 17 20 9 11 - - 0.0
23/05:30am 6.0 2.2 3.8 86 0.9 NNE 13 19 7 10 - - 0.0
23/05:00am 6.1 2.7 3.8 85 1.0 NNE 11 15 6 8 - - 0.0
23/04:30am 6.1 2.6 3.4 83 1.1 NNE 11 15 6 8 - - 0.0
23/04:00am 6.2 4.4 3.4 82 1.2 ENE 2 9 1 5 - - 0.0
23/03:30am 6.0 3.8 3.3 83 1.1 NE 4 7 2 4 - - 0.0
23/03:00am 6.0 4.2 3.2 82 1.2 E 2 9 1 5 - - 0.0
23/02:30am 6.6 3.8 3.2 79 1.4 NNE 7 11 4 6 - - 0.0
23/02:00am 7.0 3.5 3.4 78 1.5 NE 11 17 6 9 - - 0.0
23/01:30am 7.3 2.3 3.7 78 1.5 NNE 19 24 10 13 - - 0.0
23/01:00am 7.2 2.5 3.3 76 1.7 NNE 17 22 9 12 - - 0.0
23/12:30am 7.4 3.4 3.1 74 1.8 NE 13 19 7 10 - - 0.0
23/12:00am 7.5 4.2 2.6 71 2.0 NE 9 13 5 7 - - 0.0
 
Date/Time
CST
Temp
°C
App
Temp
°C
Dew
Point
Rel
Hum
%
Delta-T
°C
Wind Press
QNH
hPa
Press
MSL
hPa
Rain
since 9 am
mm
Dir
 
Spd
km/h
Gust
km/h
Spd
kts
Gust
kts
22/11:30pm 7.6 2.9 2.9 72 2.0 NE 17 20 9 11 - - 0.0
22/11:00pm 7.8 2.8 3.5 74 1.8 NE 19 24 10 13 - - 0.0
22/10:30pm 7.7 4.1 3.2 73 1.9 NE 11 17 6 9 - - 0.0
22/10:00pm 7.1 4.9 3.3 77 1.6 N 4 9 2 5 - - 0.0
22/09:30pm 8.2 4.4 3.9 74 1.9 NE 13 17 7 9 - - 0.0
22/09:00pm 8.3 4.3 4.7 78 1.6 NE 15 20 8 11 - - 0.0
22/08:30pm 8.7 4.7 4.7 76 1.8 ENE 15 22 8 12 - - 0.0
22/08:00pm 9.2 5.2 4.8 74 2.0 ENE 15 20 8 11 - - 0.0
22/07:30pm 9.2 6.0 5.0 75 1.9 NE 11 15 6 8 - - 0.0
22/07:00pm 8.8 5.9 4.8 76 1.8 ENE 9 13 5 7 - - 0.0
22/06:30pm 8.9 5.7 4.9 76 1.8 E 11 13 6 7 - - 0.0
22/06:00pm 9.4 6.1 4.8 73 2.1 E 11 13 6 7 - - 0.0
22/05:30pm 10.6 7.4 4.9 68 2.6 ENE 11 11 6 6 - - 0.0
22/05:00pm 12.6 9.4 5.1 60 3.5 ENE 11 13 6 7 - - 0.0
22/04:30pm 13.9 10.7 5.3 56 4.0 NE 11 15 6 8 - - 0.0
22/04:00pm 14.4 10.7 4.4 51 4.6 NE 13 15 7 8 - - 0.0
22/03:30pm 14.7 11.5 5.2 53 4.5 ENE 11 15 6 8 - - 0.0
22/03:00pm 14.8 12.5 5.6 54 4.4 NE 7 15 4 8 - - 0.0
22/02:30pm 14.8 12.2 6.1 56 4.2 NE 9 15 5 8 - - 0.0
22/02:00pm 14.5 11.8 5.8 56 4.1 NE 9 15 5 8 - - 0.0
22/01:30pm 14.5 11.8 5.8 56 4.1 N 9 13 5 7 - - 0.0
22/01:00pm 14.1 11.1 6.0 58 3.9 NE 11 17 6 9 - - 0.0
22/12:30pm 13.4 10.2 5.3 58 3.8 N 11 17 6 9 - - 0.0
22/12:00pm 12.9 9.3 5.1 59 3.6 NNE 13 19 7 10 - - 0.0
22/11:30am 12.4 9.2 4.9 60 3.4 N 11 17 6 9 - - 0.0
22/11:00am 11.1 7.6 5.6 69 2.5 NE 13 20 7 11 - - 0.0
22/10:30am 10.0 5.9 4.6 69 2.4 NE 15 19 8 10 - - 0.0
22/10:00am 9.3 5.3 4.9 74 2.0 NE 15 19 8 10 - - 0.0
22/09:30am 8.4 4.3 4.6 77 1.7 NE 15 19 8 10 - - 0.0
22/09:00am 7.8 4.5 4.7 81 1.4 NNE 11 17 6 9 - - 0.0
22/08:30am 6.7 3.7 4.2 84 1.1 NE 9 15 5 8 - - 0.0
22/08:00am 5.1 1.7 3.8 91 0.5 ENE 11 13 6 7 - - 0.0
22/07:30am 3.6 2.0 2.4 92 0.5 CALM 0 2 0 1 - - 0.0
22/07:00am 4.0 1.1 2.5 90 0.6 N 7 9 4 5 - - 0.0
22/06:30am 5.3 2.2 3.8 90 0.6 N 9 11 5 6 - - 0.0
22/06:00am 5.1 2.6 3.6 90 0.6 NNE 6 11 3 6 - - 0.0
22/05:30am 5.9 2.1 4.1 88 0.8 N 13 17 7 9 - - 0.0
22/05:00am 6.2 2.0 4.0 86 0.9 NNE 15 19 8 10 - - 0.0
22/04:30am 6.3 3.2 3.8 84 1.1 N 9 15 5 8 - - 0.0
22/04:00am 6.4 3.0 4.2 86 0.9 NNE 11 17 6 9 - - 0.0
22/03:30am 6.5 3.6 4.7 88 0.8 N 9 13 5 7 - - 0.0
22/03:00am 6.1 3.7 4.3 88 0.8 NNW 6 9 3 5 - - 0.0
22/02:30am 6.8 2.8 5.0 88 0.8 NNE 15 22 8 12 - - 0.0
22/02:00am 7.1 3.1 5.1 87 0.9 NNE 15 22 8 12 - - 0.0
22/01:30am 7.2 3.2 5.0 86 1.0 NNE 15 20 8 11 - - 0.0
22/01:00am 7.1 2.7 4.9 86 1.0 NE 17 24 9 13 - - 0.0
22/12:30am 7.2 3.6 4.9 85 1.0 NNE 13 20 7 11 - - 0.0
22/12:00am 7.6 3.3 5.1 84 1.1 NNE 17 22 9 12 - - 0.0
 
Date/Time
CST
Temp
°C
App
Temp
°C
Dew
Point
Rel
Hum
%
Delta-T
°C
Wind Press
QNH
hPa
Press
MSL
hPa
Rain
since 9 am
mm
Dir
 
Spd
km/h
Gust
km/h
Spd
kts
Gust
kts
21/11:30pm 7.4 3.5 5.2 86 1.0 NE 15 19 8 10 - - 0.0
21/11:00pm 7.6 3.3 5.2 85 1.1 NE 17 22 9 12 - - 0.0
21/10:30pm 7.9 4.0 5.4 84 1.1 NE 15 20 8 11 - - 0.0
21/10:00pm 8.0 3.8 5.6 85 1.1 NE 17 20 9 11 - - 0.0
21/09:30pm 7.9 4.0 5.5 85 1.1 NE 15 20 8 11 - - 0.0
21/09:00pm 8.1 4.7 5.7 85 1.1 ENE 13 19 7 10 - - 0.0
21/08:30pm 8.3 4.9 5.8 84 1.1 NE 13 17 7 9 - - 0.0
21/08:00pm 8.7 4.6 6.0 83 1.2 NE 17 22 9 12 - - 0.0
21/07:30pm 9.1 5.0 6.2 82 1.3 NE 17 22 9 12 - - 0.0
21/07:00pm 9.6 6.3 6.3 80 1.5 NE 13 19 7 10 - - 0.0
21/06:30pm 9.2 6.2 6.1 81 1.4 ENE 11 13 6 7 - - 0.0
21/06:00pm 9.5 6.9 6.2 80 1.5 ENE 9 11 5 6 - - 0.0
21/05:30pm 10.2 7.3 6.4 77 1.8 ENE 11 13 6 7 - - 0.0
21/05:00pm 11.0 8.5 6.4 73 2.2 ENE 9 13 5 7 - - 0.0
21/04:30pm 12.1 9.2 6.4 68 2.7 NE 11 17 6 9 - - 0.0
21/04:00pm 12.3 9.1 7.0 70 2.5 ENE 13 17 7 9 - - 0.0
21/03:30pm 12.1 8.4 6.4 68 2.7 NE 15 20 8 11 - - 0.0
21/03:00pm 12.9 8.9 6.5 65 3.1 NE 17 20 9 11 - - 0.0
21/02:30pm 12.6 9.0 6.9 68 2.7 NE 15 20 8 11 - - 0.0
21/02:00pm 12.3 8.2 6.4 67 2.8 NE 17 24 9 13 - - 0.0
21/01:30pm 11.7 7.6 6.2 69 2.6 NNE 17 22 9 12 - - 0.0
21/01:00pm 12.0 7.4 6.7 70 2.5 NE 20 24 11 13 - - 0.0
21/12:30pm 11.9 7.6 6.8 71 2.4 NNE 19 28 10 15 - - 0.0
21/12:00pm 10.2 7.7 6.7 79 1.6 NNE 9 17 5 9 - - 0.0
21/11:30am 9.1 4.4 6.0 81 1.4 NNE 20 28 11 15 - - 0.0
21/11:00am 8.9 4.4 6.0 82 1.3 NNE 19 26 10 14 - - 0.0
21/10:30am 8.2 3.6 5.5 83 1.2 NE 19 26 10 14 - - 0.0
21/10:00am 7.7 3.0 5.2 84 1.1 NNE 19 24 10 13 - - 0.0
21/09:30am 7.2 2.5 5.0 86 1.0 NNE 19 26 10 14 - - 0.0
21/09:00am 6.9 2.0 4.9 87 0.9 NNE 20 28 11 15 - - 0.0
21/08:30am 6.5 1.7 4.7 88 0.8 NNE 19 26 10 14 - - 0.0
21/08:00am 6.1 1.6 4.4 89 0.7 NNE 17 24 9 13 - - 0.0
21/07:30am 6.0 1.1 4.3 89 0.7 NNE 19 26 10 14 - - 0.0
21/07:00am 5.9 1.0 4.2 89 0.7 NNE 19 24 10 13 - - 0.0
21/06:30am 6.0 1.9 4.3 89 0.7 NNE 15 20 8 11 - - 0.0
21/06:00am 5.9 3.3 4.4 90 0.6 N 7 13 4 7 - - 0.0
21/05:30am 5.9 3.9 4.4 90 0.6 N 4 11 2 6 - - 0.0
21/05:00am 6.2 2.5 4.5 89 0.7 NNE 13 20 7 11 - - 0.0
21/04:30am 6.3 3.4 4.6 89 0.7 NE 9 15 5 8 - - 0.0
21/04:00am 6.0 4.4 4.3 89 0.7 N 2 7 1 4 - - 0.0
21/03:30am 5.9 3.5 4.2 89 0.7 E 6 11 3 6 - - 0.0
21/03:00am 6.4 3.8 4.4 87 0.9 E 7 17 4 9 - - 0.0
21/02:30am 6.3 3.7 4.3 87 0.9 ENE 7 11 4 6 - - 0.0
21/02:00am 6.6 3.7 4.6 87 0.9 NNE 9 13 5 7 - - 0.0
21/01:30am 6.5 3.5 4.3 86 0.9 N 9 13 5 7 - - 0.0
21/01:00am 6.8 3.5 4.5 85 1.0 NNE 11 19 6 10 - - 0.0
21/12:30am 6.9 4.0 4.7 86 1.0 NNE 9 15 5 8 - - 0.0
21/12:00am 6.7 2.7 4.9 88 0.8 NE 15 22 8 12 - - 0.0
 
Date/Time
CST
Temp
°C
App
Temp
°C
Dew
Point
Rel
Hum
%
Delta-T
°C
Wind Press
QNH
hPa
Press
MSL
hPa
Rain
since 9 am
mm
Dir
 
Spd
km/h
Gust
km/h
Spd
kts
Gust
kts
20/11:30pm 4.3 0.8 3.4 94 0.4 NNE 11 13 6 7 - - 0.0
20/11:00pm 3.2 1.2 2.3 94 0.4 NE 2 7 1 4 - - 0.0
20/10:30pm 3.3 0.9 2.4 94 0.4 ENE 4 9 2 5 - - 0.0
20/10:00pm 3.4 0.5 2.4 93 0.4 ENE 7 9 4 5 - - 0.0
20/09:30pm 3.8 0.9 2.8 93 0.4 ENE 7 9 4 5 - - 0.0

Other Formats:

Comma delimited format used in spreadsheet applications
http://www.bom.gov.au/fwo/IDS60801/IDS60801.95823.axf

JavaScript Object Notation format (JSON) in row-major order
http://www.bom.gov.au/fwo/IDS60801/IDS60801.95823.json